sensor_id;sensor_type;location;lat;lon;timestamp;P1;durP1;ratioP1;P2;durP2;ratioP2
49710;SDS011;35602;44.534;18.696;2023-05-25T00:02:49;12.55;;;11.35;;
49710;SDS011;35602;44.534;18.696;2023-05-25T00:07:53;11.85;;;10.75;;
49710;SDS011;35602;44.534;18.696;2023-05-25T00:12:54;10.93;;;9.93;;
49710;SDS011;35602;44.534;18.696;2023-05-25T00:17:56;12.88;;;11.57;;
49710;SDS011;35602;44.534;18.696;2023-05-25T00:22:56;11.90;;;10.73;;
49710;SDS011;35602;44.534;18.696;2023-05-25T00:27:57;12.57;;;11.27;;
49710;SDS011;35602;44.534;18.696;2023-05-25T00:32:58;11.75;;;10.55;;
49710;SDS011;35602;44.534;18.696;2023-05-25T00:38:00;11.50;;;10.43;;
49710;SDS011;35602;44.534;18.696;2023-05-25T00:43:01;12.07;;;10.93;;
49710;SDS011;35602;44.534;18.696;2023-05-25T00:48:02;12.50;;;11.30;;
49710;SDS011;35602;44.534;18.696;2023-05-25T00:53:04;11.68;;;10.57;;
49710;SDS011;35602;44.534;18.696;2023-05-25T00:58:07;11.60;;;10.50;;
49710;SDS011;35602;44.534;18.696;2023-05-25T01:03:11;11.35;;;10.25;;
49710;SDS011;35602;44.534;18.696;2023-05-25T01:08:16;12.07;;;10.90;;
49710;SDS011;35602;44.534;18.696;2023-05-25T01:13:20;10.73;;;9.75;;
49710;SDS011;35602;44.534;18.696;2023-05-25T01:18:22;10.90;;;9.85;;
49710;SDS011;35602;44.534;18.696;2023-05-25T01:23:24;11.65;;;10.45;;
49710;SDS011;35602;44.534;18.696;2023-05-25T01:28:37;11.75;;;10.63;;
49710;SDS011;35602;44.534;18.696;2023-05-25T01:33:45;11.23;;;10.15;;
49710;SDS011;35602;44.534;18.696;2023-05-25T01:38:49;11.60;;;10.50;;
49710;SDS011;35602;44.534;18.696;2023-05-25T01:43:51;11.43;;;10.40;;
49710;SDS011;35602;44.534;18.696;2023-05-25T01:49:15;11.85;;;9.85;;
49710;SDS011;35602;44.534;18.696;2023-05-25T01:54:37;10.98;;;9.98;;
49710;SDS011;35602;44.534;18.696;2023-05-25T01:59:44;11.07;;;9.98;;
49710;SDS011;35602;44.534;18.696;2023-05-25T02:04:46;11.38;;;10.32;;
49710;SDS011;35602;44.534;18.696;2023-05-25T02:09:48;11.35;;;10.27;;
49710;SDS011;35602;44.534;18.696;2023-05-25T02:14:51;11.73;;;10.52;;
49710;SDS011;35602;44.534;18.696;2023-05-25T02:19:52;10.90;;;9.90;;
49710;SDS011;35602;44.534;18.696;2023-05-25T02:24:53;11.43;;;10.32;;
49710;SDS011;35602;44.534;18.696;2023-05-25T02:29:54;11.43;;;10.32;;
49710;SDS011;35602;44.534;18.696;2023-05-25T02:34:55;11.98;;;10.88;;
49710;SDS011;35602;44.534;18.696;2023-05-25T02:39:56;11.43;;;10.32;;
49710;SDS011;35602;44.534;18.696;2023-05-25T02:44:57;11.02;;;9.93;;
49710;SDS011;35602;44.534;18.696;2023-05-25T02:49:57;11.88;;;10.60;;
49710;SDS011;35602;44.534;18.696;2023-05-25T02:54:58;10.82;;;9.77;;
49710;SDS011;35602;44.534;18.696;2023-05-25T03:00:00;10.85;;;9.85;;
49710;SDS011;35602;44.534;18.696;2023-05-25T03:05:00;11.20;;;10.20;;
49710;SDS011;35602;44.534;18.696;2023-05-25T03:10:02;10.75;;;9.70;;
49710;SDS011;35602;44.534;18.696;2023-05-25T03:15:03;11.60;;;10.50;;
49710;SDS011;35602;44.534;18.696;2023-05-25T03:20:05;11.02;;;10.02;;
49710;SDS011;35602;44.534;18.696;2023-05-25T03:25:09;10.55;;;9.55;;
49710;SDS011;35602;44.534;18.696;2023-05-25T03:30:13;10.95;;;9.85;;
49710;SDS011;35602;44.534;18.696;2023-05-25T03:35:13;11.63;;;9.80;;
49710;SDS011;35602;44.534;18.696;2023-05-25T03:40:15;10.25;;;9.35;;
49710;SDS011;35602;44.534;18.696;2023-05-25T03:45:15;10.50;;;9.50;;
49710;SDS011;35602;44.534;18.696;2023-05-25T03:50:16;11.02;;;9.95;;
49710;SDS011;35602;44.534;18.696;2023-05-25T03:55:17;10.70;;;9.70;;
49710;SDS011;35602;44.534;18.696;2023-05-25T04:00:18;10.80;;;9.80;;
49710;SDS011;35602;44.534;18.696;2023-05-25T04:05:19;11.23;;;10.13;;
49710;SDS011;35602;44.534;18.696;2023-05-25T04:10:20;10.48;;;9.48;;
49710;SDS011;35602;44.534;18.696;2023-05-25T04:15:21;10.40;;;9.40;;
49710;SDS011;35602;44.534;18.696;2023-05-25T04:20:22;10.70;;;9.63;;
49710;SDS011;35602;44.534;18.696;2023-05-25T04:25:23;11.12;;;9.45;;
49710;SDS011;35602;44.534;18.696;2023-05-25T04:30:24;10.63;;;9.63;;
49710;SDS011;35602;44.534;18.696;2023-05-25T04:35:25;10.60;;;9.60;;
49710;SDS011;35602;44.534;18.696;2023-05-25T04:40:27;10.27;;;9.23;;
49710;SDS011;35602;44.534;18.696;2023-05-25T04:45:28;10.43;;;9.43;;
49710;SDS011;35602;44.534;18.696;2023-05-25T04:50:30;10.68;;;9.68;;
49710;SDS011;35602;44.534;18.696;2023-05-25T04:55:31;11.57;;;10.38;;
49710;SDS011;35602;44.534;18.696;2023-05-25T05:00:32;11.07;;;9.98;;
49710;SDS011;35602;44.534;18.696;2023-05-25T05:05:33;11.73;;;9.85;;
49710;SDS011;35602;44.534;18.696;2023-05-25T05:10:38;11.07;;;9.98;;
49710;SDS011;35602;44.534;18.696;2023-05-25T05:15:39;10.52;;;9.57;;
49710;SDS011;35602;44.534;18.696;2023-05-25T05:20:40;10.43;;;9.43;;
49710;SDS011;35602;44.534;18.696;2023-05-25T05:25:41;11.60;;;10.40;;
49710;SDS011;35602;44.534;18.696;2023-05-25T05:30:42;10.45;;;9.45;;
49710;SDS011;35602;44.534;18.696;2023-05-25T05:35:45;10.93;;;9.93;;
49710;SDS011;35602;44.534;18.696;2023-05-25T05:40:46;10.30;;;9.30;;
49710;SDS011;35602;44.534;18.696;2023-05-25T05:45:47;11.43;;;10.20;;
49710;SDS011;35602;44.534;18.696;2023-05-25T05:50:48;11.25;;;10.10;;
49710;SDS011;35602;44.534;18.696;2023-05-25T05:55:48;11.30;;;10.20;;
49710;SDS011;35602;44.534;18.696;2023-05-25T06:00:53;10.57;;;9.57;;
49710;SDS011;35602;44.534;18.696;2023-05-25T06:05:55;11.05;;;10.05;;
49710;SDS011;35602;44.534;18.696;2023-05-25T06:10:56;11.38;;;10.18;;
49710;SDS011;35602;44.534;18.696;2023-05-25T06:15:56;11.45;;;10.25;;
49710;SDS011;35602;44.534;18.696;2023-05-25T06:20:59;11.55;;;10.45;;
49710;SDS011;35602;44.534;18.696;2023-05-25T06:26:03;11.95;;;10.75;;
49710;SDS011;35602;44.534;18.696;2023-05-25T06:31:05;11.12;;;10.02;;
49710;SDS011;35602;44.534;18.696;2023-05-25T06:36:07;11.50;;;10.40;;
49710;SDS011;35602;44.534;18.696;2023-05-25T06:41:08;11.93;;;10.73;;
49710;SDS011;35602;44.534;18.696;2023-05-25T06:46:11;12.15;;;10.85;;
49710;SDS011;35602;44.534;18.696;2023-05-25T06:51:16;12.88;;;11.35;;
49710;SDS011;35602;44.534;18.696;2023-05-25T06:56:18;13.30;;;11.98;;
49710;SDS011;35602;44.534;18.696;2023-05-25T07:01:19;13.77;;;12.37;;
49710;SDS011;35602;44.534;18.696;2023-05-25T07:06:19;12.95;;;11.65;;
49710;SDS011;35602;44.534;18.696;2023-05-25T07:11:20;13.00;;;11.60;;
49710;SDS011;35602;44.534;18.696;2023-05-25T07:16:24;13.95;;;12.25;;
49710;SDS011;35602;44.534;18.696;2023-05-25T07:21:25;12.90;;;11.50;;
49710;SDS011;35602;44.534;18.696;2023-05-25T07:26:26;14.30;;;12.45;;
49710;SDS011;35602;44.534;18.696;2023-05-25T07:31:27;14.77;;;12.25;;
49710;SDS011;35602;44.534;18.696;2023-05-25T07:36:28;14.57;;;11.63;;
49710;SDS011;35602;44.534;18.696;2023-05-25T07:41:29;15.85;;;12.70;;
49710;SDS011;35602;44.534;18.696;2023-05-25T07:46:30;14.40;;;12.37;;
49710;SDS011;35602;44.534;18.696;2023-05-25T07:51:31;15.65;;;12.10;;
49710;SDS011;35602;44.534;18.696;2023-05-25T07:56:32;14.43;;;12.05;;
49710;SDS011;35602;44.534;18.696;2023-05-25T08:01:32;16.12;;;12.90;;
49710;SDS011;35602;44.534;18.696;2023-05-25T08:06:35;15.10;;;12.20;;
49710;SDS011;35602;44.534;18.696;2023-05-25T08:11:35;13.85;;;12.35;;
49710;SDS011;35602;44.534;18.696;2023-05-25T08:16:36;16.40;;;12.07;;
49710;SDS011;35602;44.534;18.696;2023-05-25T08:21:37;14.77;;;12.73;;
49710;SDS011;35602;44.534;18.696;2023-05-25T08:26:39;14.87;;;12.88;;
49710;SDS011;35602;44.534;18.696;2023-05-25T08:31:40;14.65;;;12.13;;
49710;SDS011;35602;44.534;18.696;2023-05-25T08:36:42;14.90;;;12.43;;
49710;SDS011;35602;44.534;18.696;2023-05-25T08:41:44;14.98;;;12.88;;
49710;SDS011;35602;44.534;18.696;2023-05-25T08:46:46;14.20;;;12.60;;
49710;SDS011;35602;44.534;18.696;2023-05-25T08:51:50;15.70;;;12.57;;
49710;SDS011;35602;44.534;18.696;2023-05-25T08:56:54;16.05;;;13.00;;
49710;SDS011;35602;44.534;18.696;2023-05-25T09:02:07;13.52;;;12.13;;
49710;SDS011;35602;44.534;18.696;2023-05-25T09:07:24;14.27;;;12.40;;
49710;SDS011;35602;44.534;18.696;2023-05-25T09:12:31;15.77;;;13.15;;
49710;SDS011;35602;44.534;18.696;2023-05-25T09:17:33;13.48;;;12.13;;
49710;SDS011;35602;44.534;18.696;2023-05-25T09:22:34;15.05;;;13.35;;
49710;SDS011;35602;44.534;18.696;2023-05-25T09:27:35;14.38;;;12.07;;
49710;SDS011;35602;44.534;18.696;2023-05-25T09:32:37;14.77;;;12.90;;
49710;SDS011;35602;44.534;18.696;2023-05-25T09:37:41;13.95;;;12.55;;
49710;SDS011;35602;44.534;18.696;2023-05-25T09:42:43;14.13;;;12.65;;
49710;SDS011;35602;44.534;18.696;2023-05-25T09:47:44;14.87;;;12.63;;
49710;SDS011;35602;44.534;18.696;2023-05-25T09:52:46;13.52;;;12.13;;
49710;SDS011;35602;44.534;18.696;2023-05-25T09:57:49;14.50;;;12.82;;
49710;SDS011;35602;44.534;18.696;2023-05-25T10:02:53;13.82;;;12.07;;
49710;SDS011;35602;44.534;18.696;2023-05-25T10:07:54;13.57;;;12.15;;
49710;SDS011;35602;44.534;18.696;2023-05-25T10:12:56;15.13;;;12.10;;
49710;SDS011;35602;44.534;18.696;2023-05-25T10:17:58;12.98;;;11.70;;
49710;SDS011;35602;44.534;18.696;2023-05-25T10:28:27;13.18;;;11.77;;
49710;SDS011;35602;44.534;18.696;2023-05-25T10:33:28;11.40;;;10.35;;
49710;SDS011;35602;44.534;18.696;2023-05-25T10:38:31;13.00;;;11.70;;
49710;SDS011;35602;44.534;18.696;2023-05-25T10:43:33;12.63;;;11.35;;
49710;SDS011;35602;44.534;18.696;2023-05-25T10:48:35;13.62;;;11.85;;
49710;SDS011;35602;44.534;18.696;2023-05-25T10:53:43;14.15;;;12.10;;
49710;SDS011;35602;44.534;18.696;2023-05-25T10:58:45;14.27;;;11.70;;
49710;SDS011;35602;44.534;18.696;2023-05-25T11:03:46;16.90;;;12.05;;
49710;SDS011;35602;44.534;18.696;2023-05-25T11:09:23;13.15;;;11.38;;
49710;SDS011;35602;44.534;18.696;2023-05-25T11:14:29;14.00;;;12.32;;
49710;SDS011;35602;44.534;18.696;2023-05-25T11:20:09;13.13;;;11.73;;
49710;SDS011;35602;44.534;18.696;2023-05-25T11:25:35;13.98;;;12.57;;
49710;SDS011;35602;44.534;18.696;2023-05-25T11:30:38;13.73;;;12.32;;
49710;SDS011;35602;44.534;18.696;2023-05-25T11:35:41;14.15;;;12.65;;
49710;SDS011;35602;44.534;18.696;2023-05-25T11:40:44;15.13;;;12.37;;
49710;SDS011;35602;44.534;18.696;2023-05-25T11:45:45;14.40;;;12.90;;
49710;SDS011;35602;44.534;18.696;2023-05-25T11:51:05;12.80;;;11.48;;
49710;SDS011;35602;44.534;18.696;2023-05-25T11:56:06;12.82;;;11.35;;
49710;SDS011;35602;44.534;18.696;2023-05-25T12:01:13;17.83;;;12.85;;
49710;SDS011;35602;44.534;18.696;2023-05-25T12:06:22;12.57;;;11.27;;
49710;SDS011;35602;44.534;18.696;2023-05-25T12:11:32;14.07;;;12.32;;
49710;SDS011;35602;44.534;18.696;2023-05-25T12:16:34;12.98;;;11.57;;
49710;SDS011;35602;44.534;18.696;2023-05-25T12:21:39;15.13;;;12.50;;
49710;SDS011;35602;44.534;18.696;2023-05-25T12:26:50;14.87;;;12.85;;
49710;SDS011;35602;44.534;18.696;2023-05-25T12:32:01;14.30;;;12.82;;
49710;SDS011;35602;44.534;18.696;2023-05-25T12:37:03;13.27;;;11.90;;
49710;SDS011;35602;44.534;18.696;2023-05-25T12:42:10;331.05;;;296.75;;
49710;SDS011;35602;44.534;18.696;2023-05-25T12:47:20;196.73;;;175.05;;
49710;SDS011;35602;44.534;18.696;2023-05-25T12:52:32;180.30;;;160.48;;
49710;SDS011;35602;44.534;18.696;2023-05-25T12:57:44;144.80;;;127.53;;
49710;SDS011;35602;44.534;18.696;2023-05-25T13:02:46;147.93;;;126.82;;
49710;SDS011;35602;44.534;18.696;2023-05-25T13:07:47;114.75;;;100.90;;
49710;SDS011;35602;44.534;18.696;2023-05-25T13:12:48;112.35;;;100.15;;
49710;SDS011;35602;44.534;18.696;2023-05-25T13:17:53;248.77;;;219.77;;
49710;SDS011;35602;44.534;18.696;2023-05-25T13:22:54;268.95;;;240.20;;
49710;SDS011;35602;44.534;18.696;2023-05-25T13:27:54;303.67;;;270.95;;
49710;SDS011;35602;44.534;18.696;2023-05-25T13:32:56;292.13;;;261.15;;
49710;SDS011;35602;44.534;18.696;2023-05-25T13:37:57;258.95;;;231.52;;
49710;SDS011;35602;44.534;18.696;2023-05-25T13:42:58;251.57;;;225.02;;
49710;SDS011;35602;44.534;18.696;2023-05-25T13:47:59;254.93;;;228.30;;
49710;SDS011;35602;44.534;18.696;2023-05-25T13:53:00;239.18;;;213.65;;
49710;SDS011;35602;44.534;18.696;2023-05-25T13:58:01;234.50;;;209.62;;
49710;SDS011;35602;44.534;18.696;2023-05-25T14:03:02;234.12;;;208.75;;
49710;SDS011;35602;44.534;18.696;2023-05-25T14:08:03;239.57;;;214.40;;
49710;SDS011;35602;44.534;18.696;2023-05-25T14:13:04;238.00;;;213.30;;
49710;SDS011;35602;44.534;18.696;2023-05-25T14:18:05;229.90;;;205.95;;
49710;SDS011;35602;44.534;18.696;2023-05-25T14:23:06;233.75;;;209.27;;
49710;SDS011;35602;44.534;18.696;2023-05-25T14:28:07;227.20;;;203.40;;
49710;SDS011;35602;44.534;18.696;2023-05-25T14:33:07;228.98;;;204.65;;
49710;SDS011;35602;44.534;18.696;2023-05-25T14:38:13;225.80;;;202.15;;
49710;SDS011;35602;44.534;18.696;2023-05-25T14:43:13;223.60;;;200.20;;
49710;SDS011;35602;44.534;18.696;2023-05-25T14:48:14;210.93;;;188.82;;
49710;SDS011;35602;44.534;18.696;2023-05-25T14:53:17;219.60;;;196.32;;
49710;SDS011;35602;44.534;18.696;2023-05-25T14:58:18;217.23;;;194.82;;
49710;SDS011;35602;44.534;18.696;2023-05-25T15:03:19;219.27;;;196.50;;
49710;SDS011;35602;44.534;18.696;2023-05-25T15:08:22;208.70;;;186.93;;
49710;SDS011;35602;44.534;18.696;2023-05-25T15:13:22;216.07;;;193.85;;
49710;SDS011;35602;44.534;18.696;2023-05-25T15:18:23;208.25;;;187.07;;
49710;SDS011;35602;44.534;18.696;2023-05-25T15:23:27;200.57;;;179.50;;
49710;SDS011;35602;44.534;18.696;2023-05-25T15:28:31;199.12;;;178.18;;
49710;SDS011;35602;44.534;18.696;2023-05-25T15:33:32;200.05;;;179.27;;
49710;SDS011;35602;44.534;18.696;2023-05-25T15:38:34;197.68;;;177.00;;
49710;SDS011;35602;44.534;18.696;2023-05-25T15:43:35;205.52;;;184.13;;
49710;SDS011;35602;44.534;18.696;2023-05-25T15:48:35;204.43;;;183.12;;
49710;SDS011;35602;44.534;18.696;2023-05-25T15:53:36;201.35;;;180.40;;
49710;SDS011;35602;44.534;18.696;2023-05-25T15:58:37;193.68;;;173.70;;
49710;SDS011;35602;44.534;18.696;2023-05-25T16:03:38;195.68;;;175.10;;
49710;SDS011;35602;44.534;18.696;2023-05-25T16:08:41;191.93;;;171.95;;
49710;SDS011;35602;44.534;18.696;2023-05-25T16:13:42;189.10;;;169.23;;
49710;SDS011;35602;44.534;18.696;2023-05-25T16:18:42;192.82;;;172.60;;
49710;SDS011;35602;44.534;18.696;2023-05-25T16:23:44;193.13;;;173.20;;
49710;SDS011;35602;44.534;18.696;2023-05-25T16:28:45;191.93;;;171.98;;
49710;SDS011;35602;44.534;18.696;2023-05-25T16:33:49;186.77;;;167.05;;
49710;SDS011;35602;44.534;18.696;2023-05-25T16:38:49;182.60;;;163.85;;
49710;SDS011;35602;44.534;18.696;2023-05-25T16:43:50;190.68;;;171.18;;
49710;SDS011;35602;44.534;18.696;2023-05-25T16:48:51;185.35;;;166.20;;
49710;SDS011;35602;44.534;18.696;2023-05-25T16:53:52;183.20;;;163.98;;
49710;SDS011;35602;44.534;18.696;2023-05-25T16:58:53;182.15;;;163.05;;
49710;SDS011;35602;44.534;18.696;2023-05-25T17:03:55;181.77;;;163.05;;
49710;SDS011;35602;44.534;18.696;2023-05-25T17:08:56;185.48;;;165.98;;
49710;SDS011;35602;44.534;18.696;2023-05-25T17:13:57;181.60;;;162.68;;
49710;SDS011;35602;44.534;18.696;2023-05-25T17:18:57;181.00;;;162.45;;
49710;SDS011;35602;44.534;18.696;2023-05-25T17:23:59;177.80;;;159.10;;
49710;SDS011;35602;44.534;18.696;2023-05-25T17:29:00;178.02;;;159.55;;
49710;SDS011;35602;44.534;18.696;2023-05-25T17:34:01;178.00;;;159.52;;
49710;SDS011;35602;44.534;18.696;2023-05-25T17:39:02;175.98;;;157.82;;
49710;SDS011;35602;44.534;18.696;2023-05-25T17:44:03;178.15;;;159.82;;
49710;SDS011;35602;44.534;18.696;2023-05-25T17:49:04;176.87;;;158.70;;
49710;SDS011;35602;44.534;18.696;2023-05-25T17:54:05;177.80;;;159.60;;
49710;SDS011;35602;44.534;18.696;2023-05-25T17:59:06;171.00;;;153.18;;
49710;SDS011;35602;44.534;18.696;2023-05-25T18:04:08;171.18;;;153.55;;
49710;SDS011;35602;44.534;18.696;2023-05-25T18:09:09;169.60;;;152.10;;
49710;SDS011;35602;44.534;18.696;2023-05-25T18:14:10;171.25;;;153.55;;
49710;SDS011;35602;44.534;18.696;2023-05-25T18:19:11;166.48;;;149.20;;
49710;SDS011;35602;44.534;18.696;2023-05-25T18:24:15;170.25;;;152.55;;
49710;SDS011;35602;44.534;18.696;2023-05-25T18:29:15;163.30;;;146.40;;
49710;SDS011;35602;44.534;18.696;2023-05-25T18:34:16;167.82;;;150.60;;
49710;SDS011;35602;44.534;18.696;2023-05-25T18:39:17;160.37;;;143.62;;
49710;SDS011;35602;44.534;18.696;2023-05-25T18:44:18;161.07;;;144.52;;
49710;SDS011;35602;44.534;18.696;2023-05-25T18:49:19;161.75;;;145.30;;
49710;SDS011;35602;44.534;18.696;2023-05-25T18:54:20;156.05;;;140.00;;
49710;SDS011;35602;44.534;18.696;2023-05-25T18:59:21;154.68;;;138.70;;
49710;SDS011;35602;44.534;18.696;2023-05-25T19:04:21;154.25;;;138.50;;
49710;SDS011;35602;44.534;18.696;2023-05-25T19:09:22;156.05;;;140.12;;
49710;SDS011;35602;44.534;18.696;2023-05-25T19:14:23;152.27;;;136.62;;
49710;SDS011;35602;44.534;18.696;2023-05-25T19:19:24;153.10;;;137.52;;
49710;SDS011;35602;44.534;18.696;2023-05-25T19:24:25;148.62;;;133.48;;
49710;SDS011;35602;44.534;18.696;2023-05-25T19:29:26;148.20;;;132.82;;
49710;SDS011;35602;44.534;18.696;2023-05-25T19:34:26;145.65;;;130.48;;
49710;SDS011;35602;44.534;18.696;2023-05-25T19:39:27;150.50;;;135.23;;
49710;SDS011;35602;44.534;18.696;2023-05-25T19:44:30;149.40;;;134.30;;
49710;SDS011;35602;44.534;18.696;2023-05-25T19:49:31;141.77;;;127.25;;
49710;SDS011;35602;44.534;18.696;2023-05-25T19:54:32;142.77;;;128.12;;
49710;SDS011;35602;44.534;18.696;2023-05-25T19:59:36;141.27;;;126.87;;
49710;SDS011;35602;44.534;18.696;2023-05-25T20:04:39;137.25;;;123.38;;
49710;SDS011;35602;44.534;18.696;2023-05-25T20:09:41;139.57;;;125.50;;
49710;SDS011;35602;44.534;18.696;2023-05-25T20:14:43;136.50;;;122.70;;
49710;SDS011;35602;44.534;18.696;2023-05-25T20:19:43;134.98;;;121.18;;
49710;SDS011;35602;44.534;18.696;2023-05-25T20:24:44;134.00;;;120.53;;
49710;SDS011;35602;44.534;18.696;2023-05-25T20:29:45;134.90;;;121.25;;
49710;SDS011;35602;44.534;18.696;2023-05-25T20:34:48;129.75;;;116.62;;
49710;SDS011;35602;44.534;18.696;2023-05-25T20:39:50;126.30;;;113.57;;
49710;SDS011;35602;44.534;18.696;2023-05-25T20:44:50;128.27;;;115.45;;
49710;SDS011;35602;44.534;18.696;2023-05-25T20:49:51;126.57;;;113.72;;
49710;SDS011;35602;44.534;18.696;2023-05-25T20:54:52;127.35;;;114.43;;
49710;SDS011;35602;44.534;18.696;2023-05-25T20:59:56;123.25;;;110.78;;
49710;SDS011;35602;44.534;18.696;2023-05-25T21:04:58;119.80;;;107.57;;
49710;SDS011;35602;44.534;18.696;2023-05-25T21:09:59;123.85;;;111.43;;
49710;SDS011;35602;44.534;18.696;2023-05-25T21:15:00;124.60;;;112.00;;
49710;SDS011;35602;44.534;18.696;2023-05-25T21:20:01;121.32;;;109.20;;
49710;SDS011;35602;44.534;18.696;2023-05-25T21:25:03;119.97;;;107.78;;
49710;SDS011;35602;44.534;18.696;2023-05-25T21:30:04;119.80;;;107.68;;
49710;SDS011;35602;44.534;18.696;2023-05-25T21:35:06;119.55;;;107.43;;
49710;SDS011;35602;44.534;18.696;2023-05-25T21:40:07;119.93;;;107.72;;
49710;SDS011;35602;44.534;18.696;2023-05-25T21:45:09;116.60;;;104.75;;
49710;SDS011;35602;44.534;18.696;2023-05-25T21:50:10;113.62;;;102.12;;
49710;SDS011;35602;44.534;18.696;2023-05-25T21:55:10;115.03;;;103.43;;
49710;SDS011;35602;44.534;18.696;2023-05-25T22:00:12;117.13;;;105.47;;
49710;SDS011;35602;44.534;18.696;2023-05-25T22:05:13;114.35;;;103.15;;
49710;SDS011;35602;44.534;18.696;2023-05-25T22:10:14;113.50;;;102.15;;
49710;SDS011;35602;44.534;18.696;2023-05-25T22:15:15;112.07;;;100.78;;
49710;SDS011;35602;44.534;18.696;2023-05-25T22:20:17;113.85;;;102.32;;
49710;SDS011;35602;44.534;18.696;2023-05-25T22:25:21;110.78;;;99.78;;
49710;SDS011;35602;44.534;18.696;2023-05-25T22:30:22;107.78;;;96.95;;
49710;SDS011;35602;44.534;18.696;2023-05-25T22:35:23;108.70;;;97.50;;
49710;SDS011;35602;44.534;18.696;2023-05-25T22:40:23;108.97;;;98.25;;
49710;SDS011;35602;44.534;18.696;2023-05-25T22:45:24;108.55;;;98.00;;
49710;SDS011;35602;44.534;18.696;2023-05-25T22:50:25;105.15;;;94.57;;
49710;SDS011;35602;44.534;18.696;2023-05-25T22:55:26;107.18;;;96.68;;
49710;SDS011;35602;44.534;18.696;2023-05-25T23:00:27;107.40;;;96.60;;
49710;SDS011;35602;44.534;18.696;2023-05-25T23:05:27;104.50;;;94.15;;
49710;SDS011;35602;44.534;18.696;2023-05-25T23:10:28;107.37;;;96.85;;
49710;SDS011;35602;44.534;18.696;2023-05-25T23:15:29;103.47;;;93.37;;
49710;SDS011;35602;44.534;18.696;2023-05-25T23:20:30;102.78;;;92.78;;
49710;SDS011;35602;44.534;18.696;2023-05-25T23:25:32;100.53;;;90.53;;
49710;SDS011;35602;44.534;18.696;2023-05-25T23:30:33;99.87;;;90.03;;
49710;SDS011;35602;44.534;18.696;2023-05-25T23:35:34;103.72;;;93.53;;
49710;SDS011;35602;44.534;18.696;2023-05-25T23:40:35;99.80;;;90.10;;
49710;SDS011;35602;44.534;18.696;2023-05-25T23:45:36;95.35;;;85.75;;
49710;SDS011;35602;44.534;18.696;2023-05-25T23:50:38;98.40;;;88.55;;
49710;SDS011;35602;44.534;18.696;2023-05-25T23:55:40;94.32;;;84.75;;
